sensor_id;sensor_type;location;lat;lon;timestamp;temperature;humidity
65864;SHT30;52639;51.180;20.460;2023-03-04T00:02:25;-0.72;87.17
65864;SHT30;52639;51.180;20.460;2023-03-04T00:06:28;-0.69;87.12
65864;SHT30;52639;51.180;20.460;2023-03-04T00:10:31;-0.68;86.94
65864;SHT30;52639;51.180;20.460;2023-03-04T00:14:33;-0.65;87.32
65864;SHT30;52639;51.180;20.460;2023-03-04T00:18:38;-0.67;86.76
65864;SHT30;52639;51.180;20.460;2023-03-04T00:22:40;-0.65;87.18
65864;SHT30;52639;51.180;20.460;2023-03-04T00:26:43;-0.65;86.88
65864;SHT30;52639;51.180;20.460;2023-03-04T00:30:46;-0.65;86.19
65864;SHT30;52639;51.180;20.460;2023-03-04T00:34:51;-0.62;86.47
65864;SHT30;52639;51.180;20.460;2023-03-04T00:38:53;-0.65;86.68
65864;SHT30;52639;51.180;20.460;2023-03-04T00:42:56;-0.65;86.34
65864;SHT30;52639;51.180;20.460;2023-03-04T00:46:59;-0.67;86.31
65864;SHT30;52639;51.180;20.460;2023-03-04T00:51:04;-0.67;86.83
65864;SHT30;52639;51.180;20.460;2023-03-04T00:55:08;-0.65;86.72
65864;SHT30;52639;51.180;20.460;2023-03-04T00:59:11;-0.65;86.90
65864;SHT30;52639;51.180;20.460;2023-03-04T01:03:13;-0.64;86.59
65864;SHT30;52639;51.180;20.460;2023-03-04T01:07:18;-0.65;86.25
65864;SHT30;52639;51.180;20.460;2023-03-04T01:11:21;-0.64;85.92
65864;SHT30;52639;51.180;20.460;2023-03-04T01:15:24;-0.64;87.47
65864;SHT30;52639;51.180;20.460;2023-03-04T01:19:26;-0.64;87.19
65864;SHT30;52639;51.180;20.460;2023-03-04T01:23:31;-0.67;86.95
65864;SHT30;52639;51.180;20.460;2023-03-04T01:27:34;-0.65;87.53
65864;SHT30;52639;51.180;20.460;2023-03-04T01:31:37;-0.68;87.45
65864;SHT30;52639;51.180;20.460;2023-03-04T01:35:40;-0.65;87.84
65864;SHT30;52639;51.180;20.460;2023-03-04T01:39:44;-0.64;88.01
65864;SHT30;52639;51.180;20.460;2023-03-04T01:43:47;-0.61;88.22
65864;SHT30;52639;51.180;20.460;2023-03-04T01:47:50;-0.62;88.36
65864;SHT30;52639;51.180;20.460;2023-03-04T01:51:53;-0.58;88.39
65864;SHT30;52639;51.180;20.460;2023-03-04T01:56:01;-0.57;88.08
65864;SHT30;52639;51.180;20.460;2023-03-04T02:00:22;-0.56;88.22
65864;SHT30;52639;51.180;20.460;2023-03-04T02:04:26;-0.53;88.03
65864;SHT30;52639;51.180;20.460;2023-03-04T02:08:29;-0.51;87.63
65864;SHT30;52639;51.180;20.460;2023-03-04T02:12:34;-0.54;88.65
65864;SHT30;52639;51.180;20.460;2023-03-04T02:16:37;-0.53;88.80
65864;SHT30;52639;51.180;20.460;2023-03-04T02:20:44;-0.53;88.29
65864;SHT30;52639;51.180;20.460;2023-03-04T02:24:53;-0.56;88.61
65864;SHT30;52639;51.180;20.460;2023-03-04T02:29:01;-0.53;89.59
65864;SHT30;52639;51.180;20.460;2023-03-04T02:33:04;-0.51;89.29
65864;SHT30;52639;51.180;20.460;2023-03-04T02:37:09;-0.53;90.00
65864;SHT30;52639;51.180;20.460;2023-03-04T02:41:14;-0.51;89.94
65864;SHT30;52639;51.180;20.460;2023-03-04T02:45:35;-0.53;90.83
65864;SHT30;52639;51.180;20.460;2023-03-04T02:49:39;-0.53;90.49
65864;SHT30;52639;51.180;20.460;2023-03-04T02:53:42;-0.53;90.65
65864;SHT30;52639;51.180;20.460;2023-03-04T02:57:45;-0.53;90.92
65864;SHT30;52639;51.180;20.460;2023-03-04T03:01:50;-0.54;89.61
65864;SHT30;52639;51.180;20.460;2023-03-04T03:05:53;-0.53;90.53
65864;SHT30;52639;51.180;20.460;2023-03-04T03:09:56;-0.50;90.25
65864;SHT30;52639;51.180;20.460;2023-03-04T03:13:59;-0.48;89.81
65864;SHT30;52639;51.180;20.460;2023-03-04T03:18:03;-0.50;89.39
65864;SHT30;52639;51.180;20.460;2023-03-04T03:22:06;-0.50;88.99
65864;SHT30;52639;51.180;20.460;2023-03-04T03:26:09;-0.51;88.17
65864;SHT30;52639;51.180;20.460;2023-03-04T03:30:13;-0.48;88.20
65864;SHT30;52639;51.180;20.460;2023-03-04T03:34:18;-0.50;88.19
65864;SHT30;52639;51.180;20.460;2023-03-04T03:38:20;-0.50;87.40
65864;SHT30;52639;51.180;20.460;2023-03-04T03:42:23;-0.51;87.86
65864;SHT30;52639;51.180;20.460;2023-03-04T03:46:26;-0.53;88.26
65864;SHT30;52639;51.180;20.460;2023-03-04T03:50:31;-0.51;87.75
65864;SHT30;52639;51.180;20.460;2023-03-04T03:54:33;-0.50;87.91
65864;SHT30;52639;51.180;20.460;2023-03-04T03:58:36;-0.50;88.20
65864;SHT30;52639;51.180;20.460;2023-03-04T04:02:39;-0.48;88.43
65864;SHT30;52639;51.180;20.460;2023-03-04T04:06:44;-0.51;87.64
65864;SHT30;52639;51.180;20.460;2023-03-04T04:10:46;-0.50;87.63
65864;SHT30;52639;51.180;20.460;2023-03-04T04:14:49;-0.51;88.39
65864;SHT30;52639;51.180;20.460;2023-03-04T04:18:52;-0.51;87.46
65864;SHT30;52639;51.180;20.460;2023-03-04T04:22:56;-0.54;88.28
65864;SHT30;52639;51.180;20.460;2023-03-04T04:26:59;-0.51;87.54
65864;SHT30;52639;51.180;20.460;2023-03-04T04:31:06;-0.51;87.57
65864;SHT30;52639;51.180;20.460;2023-03-04T04:35:09;-0.54;87.69
65864;SHT30;52639;51.180;20.460;2023-03-04T04:39:14;-0.51;87.57
65864;SHT30;52639;51.180;20.460;2023-03-04T04:43:16;-0.53;87.41
65864;SHT30;52639;51.180;20.460;2023-03-04T04:47:19;-0.53;87.31
65864;SHT30;52639;51.180;20.460;2023-03-04T04:51:22;-0.53;87.89
65864;SHT30;52639;51.180;20.460;2023-03-04T04:55:26;-0.50;87.52
65864;SHT30;52639;51.180;20.460;2023-03-04T04:59:29;-0.50;87.33
65864;SHT30;52639;51.180;20.460;2023-03-04T05:03:33;-0.48;87.23
65864;SHT30;52639;51.180;20.460;2023-03-04T05:07:36;-0.45;87.25
65864;SHT30;52639;51.180;20.460;2023-03-04T05:11:41;-0.44;87.27
65864;SHT30;52639;51.180;20.460;2023-03-04T05:15:43;-0.44;87.26
65864;SHT30;52639;51.180;20.460;2023-03-04T05:19:46;-0.42;87.32
65864;SHT30;52639;51.180;20.460;2023-03-04T05:23:49;-0.37;87.26
65864;SHT30;52639;51.180;20.460;2023-03-04T05:27:54;-0.37;86.97
65864;SHT30;52639;51.180;20.460;2023-03-04T05:31:56;-0.34;86.97
65864;SHT30;52639;51.180;20.460;2023-03-04T05:36:00;-0.33;86.75
65864;SHT30;52639;51.180;20.460;2023-03-04T05:40:03;-0.30;87.08
65864;SHT30;52639;51.180;20.460;2023-03-04T05:44:09;-0.27;86.89
65864;SHT30;52639;51.180;20.460;2023-03-04T05:48:11;-0.26;86.85
65864;SHT30;52639;51.180;20.460;2023-03-04T05:52:14;-0.23;86.61
65864;SHT30;52639;51.180;20.460;2023-03-04T05:56:18;-0.23;86.25
65864;SHT30;52639;51.180;20.460;2023-03-04T06:00:23;-0.21;86.47
65864;SHT30;52639;51.180;20.460;2023-03-04T06:04:26;-0.16;86.20
65864;SHT30;52639;51.180;20.460;2023-03-04T06:08:29;-0.11;85.88
65864;SHT30;52639;51.180;20.460;2023-03-04T06:12:32;-0.09;85.94
65864;SHT30;52639;51.180;20.460;2023-03-04T06:16:37;-0.06;85.84
65864;SHT30;52639;51.180;20.460;2023-03-04T06:20:41;-0.02;85.38
65864;SHT30;52639;51.180;20.460;2023-03-04T06:24:45;0.04;85.46
65864;SHT30;52639;51.180;20.460;2023-03-04T06:28:48;0.03;85.35
65864;SHT30;52639;51.180;20.460;2023-03-04T06:32:52;0.08;85.12
65864;SHT30;52639;51.180;20.460;2023-03-04T06:36:55;0.10;85.18
65864;SHT30;52639;51.180;20.460;2023-03-04T06:41:06;0.11;85.25
65864;SHT30;52639;51.180;20.460;2023-03-04T06:45:10;0.15;85.01
65864;SHT30;52639;51.180;20.460;2023-03-04T06:49:15;0.18;84.68
65864;SHT30;52639;51.180;20.460;2023-03-04T06:53:18;0.22;84.58
65864;SHT30;52639;51.180;20.460;2023-03-04T06:57:21;0.27;84.52
65864;SHT30;52639;51.180;20.460;2023-03-04T07:01:25;0.28;84.26
65864;SHT30;52639;51.180;20.460;2023-03-04T07:05:30;0.31;84.19
65864;SHT30;52639;51.180;20.460;2023-03-04T07:09:33;0.34;84.21
65864;SHT30;52639;51.180;20.460;2023-03-04T07:13:36;0.37;83.92
65864;SHT30;52639;51.180;20.460;2023-03-04T07:17:39;0.38;83.98
65864;SHT30;52639;51.180;20.460;2023-03-04T07:21:44;0.44;83.76
65864;SHT30;52639;51.180;20.460;2023-03-04T07:25:48;0.42;83.66
65864;SHT30;52639;51.180;20.460;2023-03-04T07:29:51;0.47;83.54
65864;SHT30;52639;51.180;20.460;2023-03-04T07:33:55;0.50;83.35
65864;SHT30;52639;51.180;20.460;2023-03-04T07:38:00;0.54;83.39
65864;SHT30;52639;51.180;20.460;2023-03-04T07:42:03;0.55;83.16
65864;SHT30;52639;51.180;20.460;2023-03-04T07:46:06;0.55;83.19
65864;SHT30;52639;51.180;20.460;2023-03-04T07:50:10;0.61;83.13
65864;SHT30;52639;51.180;20.460;2023-03-04T07:54:14;0.61;83.02
65864;SHT30;52639;51.180;20.460;2023-03-04T07:58:21;0.62;83.07
65864;SHT30;52639;51.180;20.460;2023-03-04T08:02:24;0.65;82.75
65864;SHT30;52639;51.180;20.460;2023-03-04T08:06:27;0.68;82.83
65864;SHT30;52639;51.180;20.460;2023-03-04T08:10:32;0.73;82.71
65864;SHT30;52639;51.180;20.460;2023-03-04T08:14:35;0.76;82.55
65864;SHT30;52639;51.180;20.460;2023-03-04T08:18:38;0.82;82.11
65864;SHT30;52639;51.180;20.460;2023-03-04T08:22:41;0.85;82.15
65864;SHT30;52639;51.180;20.460;2023-03-04T08:26:47;0.91;82.24
65864;SHT30;52639;51.180;20.460;2023-03-04T08:30:53;1.05;82.03
65864;SHT30;52639;51.180;20.460;2023-03-04T08:34:56;1.06;81.63
65864;SHT30;52639;51.180;20.460;2023-03-04T08:39:03;1.07;81.12
65864;SHT30;52639;51.180;20.460;2023-03-04T08:43:07;1.13;81.57
65864;SHT30;52639;51.180;20.460;2023-03-04T08:47:10;1.15;81.55
65864;SHT30;52639;51.180;20.460;2023-03-04T08:51:14;1.19;81.41
65864;SHT30;52639;51.180;20.460;2023-03-04T08:55:17;1.16;80.97
65864;SHT30;52639;51.180;20.460;2023-03-04T08:59:22;1.17;81.33
65864;SHT30;52639;51.180;20.460;2023-03-04T09:03:25;1.23;81.33
65864;SHT30;52639;51.180;20.460;2023-03-04T09:07:28;1.27;81.27
65864;SHT30;52639;51.180;20.460;2023-03-04T09:11:31;1.29;81.18
65864;SHT30;52639;51.180;20.460;2023-03-04T09:15:35;1.30;81.23
65864;SHT30;52639;51.180;20.460;2023-03-04T09:19:38;1.26;81.26
65864;SHT30;52639;51.180;20.460;2023-03-04T09:23:41;1.30;81.09
65864;SHT30;52639;51.180;20.460;2023-03-04T09:27:44;1.39;81.46
65864;SHT30;52639;51.180;20.460;2023-03-04T09:31:48;1.46;81.32
65864;SHT30;52639;51.180;20.460;2023-03-04T09:35:51;1.53;81.12
65864;SHT30;52639;51.180;20.460;2023-03-04T09:39:54;1.53;80.73
65864;SHT30;52639;51.180;20.460;2023-03-04T09:43:57;1.47;80.90
65864;SHT30;52639;51.180;20.460;2023-03-04T09:48:02;1.49;81.12
65864;SHT30;52639;51.180;20.460;2023-03-04T09:52:12;1.49;81.14
65864;SHT30;52639;51.180;20.460;2023-03-04T09:56:24;1.50;80.73
65864;SHT30;52639;51.180;20.460;2023-03-04T10:00:34;1.47;81.20
65864;SHT30;52639;51.180;20.460;2023-03-04T10:04:47;1.46;81.13
65864;SHT30;52639;51.180;20.460;2023-03-04T10:08:53;1.53;81.03
65864;SHT30;52639;51.180;20.460;2023-03-04T10:13:00;1.51;81.11
65864;SHT30;52639;51.180;20.460;2023-03-04T10:17:11;1.54;81.17
65864;SHT30;52639;51.180;20.460;2023-03-04T10:21:22;1.57;81.17
65864;SHT30;52639;51.180;20.460;2023-03-04T10:25:28;1.66;81.12
65864;SHT30;52639;51.180;20.460;2023-03-04T10:29:32;1.73;80.73
65864;SHT30;52639;51.180;20.460;2023-03-04T10:33:37;1.78;80.61
65864;SHT30;52639;51.180;20.460;2023-03-04T10:37:48;1.88;80.50
65864;SHT30;52639;51.180;20.460;2023-03-04T10:42:00;2.05;80.14
65864;SHT30;52639;51.180;20.460;2023-03-04T10:46:03;2.04;80.00
65864;SHT30;52639;51.180;20.460;2023-03-04T10:50:21;2.05;79.91
65864;SHT30;52639;51.180;20.460;2023-03-04T10:54:28;2.10;79.91
65864;SHT30;52639;51.180;20.460;2023-03-04T10:58:32;2.10;80.13
65864;SHT30;52639;51.180;20.460;2023-03-04T11:02:36;2.14;79.74
65864;SHT30;52639;51.180;20.460;2023-03-04T11:06:40;2.17;79.82
65864;SHT30;52639;51.180;20.460;2023-03-04T11:10:44;2.25;80.24
65864;SHT30;52639;51.180;20.460;2023-03-04T11:14:51;2.35;79.70
65864;SHT30;52639;51.180;20.460;2023-03-04T11:18:59;2.46;79.61
65864;SHT30;52639;51.180;20.460;2023-03-04T11:23:16;2.42;79.42
65864;SHT30;52639;51.180;20.460;2023-03-04T11:27:33;2.55;79.79
65864;SHT30;52639;51.180;20.460;2023-03-04T11:31:44;2.42;79.77
65864;SHT30;52639;51.180;20.460;2023-03-04T11:35:54;2.56;79.99
65864;SHT30;52639;51.180;20.460;2023-03-04T11:40:04;2.59;79.98
65864;SHT30;52639;51.180;20.460;2023-03-04T11:44:12;2.52;79.95
65864;SHT30;52639;51.180;20.460;2023-03-04T11:48:18;2.42;80.27
65864;SHT30;52639;51.180;20.460;2023-03-04T11:52:37;2.46;80.59
65864;SHT30;52639;51.180;20.460;2023-03-04T11:56:45;2.58;80.42
65864;SHT30;52639;51.180;20.460;2023-03-04T12:01:04;2.69;80.28
65864;SHT30;52639;51.180;20.460;2023-03-04T12:05:24;2.86;80.06
65864;SHT30;52639;51.180;20.460;2023-03-04T12:09:32;2.86;80.38
65864;SHT30;52639;51.180;20.460;2023-03-04T12:18:31;2.89;80.37
65864;SHT30;52639;51.180;20.460;2023-03-04T12:22:42;2.87;80.37
65864;SHT30;52639;51.180;20.460;2023-03-04T12:26:48;2.82;80.66
65864;SHT30;52639;51.180;20.460;2023-03-04T12:31:11;2.73;81.03
65864;SHT30;52639;51.180;20.460;2023-03-04T12:35:34;2.89;80.91
65864;SHT30;52639;51.180;20.460;2023-03-04T12:39:39;2.83;80.95
65864;SHT30;52639;51.180;20.460;2023-03-04T12:43:52;2.73;81.36
65864;SHT30;52639;51.180;20.460;2023-03-04T12:48:02;2.71;81.94
65864;SHT30;52639;51.180;20.460;2023-03-04T12:52:15;2.82;82.19
65864;SHT30;52639;51.180;20.460;2023-03-04T12:56:24;2.89;81.71
65864;SHT30;52639;51.180;20.460;2023-03-04T13:00:38;2.82;81.85
65864;SHT30;52639;51.180;20.460;2023-03-04T13:04:51;2.71;82.17
65864;SHT30;52639;51.180;20.460;2023-03-04T13:09:04;2.66;83.05
65864;SHT30;52639;51.180;20.460;2023-03-04T13:13:38;2.59;82.85
65864;SHT30;52639;51.180;20.460;2023-03-04T13:17:43;2.50;84.03
65864;SHT30;52639;51.180;20.460;2023-03-04T13:21:47;2.46;84.48
65864;SHT30;52639;51.180;20.460;2023-03-04T13:26:17;2.45;83.54
65864;SHT30;52639;51.180;20.460;2023-03-04T13:30:41;2.44;84.67
65864;SHT30;52639;51.180;20.460;2023-03-04T13:34:50;2.39;85.10
65864;SHT30;52639;51.180;20.460;2023-03-04T13:39:00;2.45;84.75
65864;SHT30;52639;51.180;20.460;2023-03-04T13:43:37;2.52;84.08
65864;SHT30;52639;51.180;20.460;2023-03-04T13:47:44;2.59;84.36
65864;SHT30;52639;51.180;20.460;2023-03-04T13:51:48;2.60;84.58
65864;SHT30;52639;51.180;20.460;2023-03-04T13:56:26;2.60;84.51
65864;SHT30;52639;51.180;20.460;2023-03-04T14:00:35;2.65;84.48
65864;SHT30;52639;51.180;20.460;2023-03-04T14:04:40;2.75;83.93
65864;SHT30;52639;51.180;20.460;2023-03-04T14:08:44;2.90;83.87
65864;SHT30;52639;51.180;20.460;2023-03-04T14:12:49;2.99;83.36
65864;SHT30;52639;51.180;20.460;2023-03-04T14:16:57;2.90;83.21
65864;SHT30;52639;51.180;20.460;2023-03-04T14:21:00;2.95;83.84
65864;SHT30;52639;51.180;20.460;2023-03-04T14:25:06;3.03;83.41
65864;SHT30;52639;51.180;20.460;2023-03-04T14:29:23;3.31;82.47
65864;SHT30;52639;51.180;20.460;2023-03-04T14:33:29;3.37;82.37
65864;SHT30;52639;51.180;20.460;2023-03-04T14:37:37;3.35;82.78
65864;SHT30;52639;51.180;20.460;2023-03-04T14:41:46;3.41;82.43
65864;SHT30;52639;51.180;20.460;2023-03-04T14:45:52;3.48;82.28
65864;SHT30;52639;51.180;20.460;2023-03-04T14:49:58;3.41;82.24
65864;SHT30;52639;51.180;20.460;2023-03-04T14:54:04;3.37;82.77
65864;SHT30;52639;51.180;20.460;2023-03-04T14:58:18;3.30;82.89
65864;SHT30;52639;51.180;20.460;2023-03-04T15:02:26;3.20;82.98
65864;SHT30;52639;51.180;20.460;2023-03-04T15:06:39;3.27;82.76
65864;SHT30;52639;51.180;20.460;2023-03-04T15:10:54;3.21;83.02
65864;SHT30;52639;51.180;20.460;2023-03-04T15:15:01;3.26;82.92
65864;SHT30;52639;51.180;20.460;2023-03-04T15:19:23;3.27;82.81
65864;SHT30;52639;51.180;20.460;2023-03-04T15:23:30;3.24;82.68
65864;SHT30;52639;51.180;20.460;2023-03-04T15:27:33;3.19;83.19
65864;SHT30;52639;51.180;20.460;2023-03-04T15:31:37;3.16;83.38
65864;SHT30;52639;51.180;20.460;2023-03-04T15:35:43;3.10;83.46
65864;SHT30;52639;51.180;20.460;2023-03-04T15:39:50;3.07;83.38
65864;SHT30;52639;51.180;20.460;2023-03-04T15:43:55;3.07;84.81
65864;SHT30;52639;51.180;20.460;2023-03-04T15:47:58;3.00;84.74
65864;SHT30;52639;51.180;20.460;2023-03-04T15:52:06;2.87;85.28
65864;SHT30;52639;51.180;20.460;2023-03-04T15:56:18;2.72;86.28
65864;SHT30;52639;51.180;20.460;2023-03-04T16:00:23;2.60;87.60
65864;SHT30;52639;51.180;20.460;2023-03-04T16:04:27;2.35;89.61
65864;SHT30;52639;51.180;20.460;2023-03-04T16:08:32;1.67;90.61
65864;SHT30;52639;51.180;20.460;2023-03-04T16:12:37;1.37;92.02
65864;SHT30;52639;51.180;20.460;2023-03-04T16:16:41;1.25;93.18
65864;SHT30;52639;51.180;20.460;2023-03-04T16:20:48;1.16;91.97
65864;SHT30;52639;51.180;20.460;2023-03-04T16:24:56;1.09;93.05
65864;SHT30;52639;51.180;20.460;2023-03-04T16:29:01;0.99;92.24
65864;SHT30;52639;51.180;20.460;2023-03-04T16:33:05;0.86;92.63
65864;SHT30;52639;51.180;20.460;2023-03-04T16:37:14;0.81;91.09
65864;SHT30;52639;51.180;20.460;2023-03-04T16:41:23;0.75;91.88
65864;SHT30;52639;51.180;20.460;2023-03-04T16:45:33;0.68;92.86
65864;SHT30;52639;51.180;20.460;2023-03-04T16:49:38;0.62;92.95
65864;SHT30;52639;51.180;20.460;2023-03-04T16:53:44;0.60;93.23
65864;SHT30;52639;51.180;20.460;2023-03-04T16:57:49;0.61;93.50
65864;SHT30;52639;51.180;20.460;2023-03-04T17:01:55;0.61;93.10
65864;SHT30;52639;51.180;20.460;2023-03-04T17:05:59;0.58;93.30
65864;SHT30;52639;51.180;20.460;2023-03-04T17:10:02;0.61;93.51
65864;SHT30;52639;51.180;20.460;2023-03-04T17:14:05;0.57;93.39
65864;SHT30;52639;51.180;20.460;2023-03-04T17:18:12;0.50;93.00
65864;SHT30;52639;51.180;20.460;2023-03-04T17:22:16;0.34;92.98
65864;SHT30;52639;51.180;20.460;2023-03-04T17:26:20;0.30;93.39
65864;SHT30;52639;51.180;20.460;2023-03-04T17:30:25;0.24;93.82
65864;SHT30;52639;51.180;20.460;2023-03-04T17:34:33;0.28;94.34
65864;SHT30;52639;51.180;20.460;2023-03-04T17:38:37;0.30;93.99
65864;SHT30;52639;51.180;20.460;2023-03-04T17:42:42;0.24;93.93
65864;SHT30;52639;51.180;20.460;2023-03-04T17:46:47;0.18;93.62
65864;SHT30;52639;51.180;20.460;2023-03-04T17:50:53;0.08;93.29
65864;SHT30;52639;51.180;20.460;2023-03-04T17:54:57;-0.04;92.87
65864;SHT30;52639;51.180;20.460;2023-03-04T17:59:04;-0.31;92.50
65864;SHT30;52639;51.180;20.460;2023-03-04T18:03:10;-0.44;91.82
65864;SHT30;52639;51.180;20.460;2023-03-04T18:07:18;-0.50;92.91
65864;SHT30;52639;51.180;20.460;2023-03-04T18:11:24;-0.41;93.78
65864;SHT30;52639;51.180;20.460;2023-03-04T18:15:31;-0.36;93.28
65864;SHT30;52639;51.180;20.460;2023-03-04T18:19:36;-0.23;93.74
65864;SHT30;52639;51.180;20.460;2023-03-04T18:23:42;-0.14;94.18
65864;SHT30;52639;51.180;20.460;2023-03-04T18:27:49;-0.02;93.66
65864;SHT30;52639;51.180;20.460;2023-03-04T18:31:53;0.00;93.76
65864;SHT30;52639;51.180;20.460;2023-03-04T18:35:58;0.03;93.35
65864;SHT30;52639;51.180;20.460;2023-03-04T18:40:06;0.08;93.08
65864;SHT30;52639;51.180;20.460;2023-03-04T18:44:13;-0.04;92.57
65864;SHT30;52639;51.180;20.460;2023-03-04T18:48:18;-0.16;93.15
65864;SHT30;52639;51.180;20.460;2023-03-04T18:52:24;-0.38;92.97
65864;SHT30;52639;51.180;20.460;2023-03-04T18:56:35;-0.51;93.62
65864;SHT30;52639;51.180;20.460;2023-03-04T19:00:42;-0.64;93.44
65864;SHT30;52639;51.180;20.460;2023-03-04T19:04:47;-0.67;94.49
65864;SHT30;52639;51.180;20.460;2023-03-04T19:08:57;-0.51;94.64
65864;SHT30;52639;51.180;20.460;2023-03-04T19:13:04;-0.51;94.05
65864;SHT30;52639;51.180;20.460;2023-03-04T19:17:08;-0.61;93.40
65864;SHT30;52639;51.180;20.460;2023-03-04T19:21:13;-0.78;93.27
65864;SHT30;52639;51.180;20.460;2023-03-04T19:25:19;-0.93;93.99
65864;SHT30;52639;51.180;20.460;2023-03-04T19:29:25;-0.99;93.83
65864;SHT30;52639;51.180;20.460;2023-03-04T19:33:35;-0.96;94.20
65864;SHT30;52639;51.180;20.460;2023-03-04T19:37:40;-0.68;95.24
65864;SHT30;52639;51.180;20.460;2023-03-04T19:41:45;-0.42;94.64
65864;SHT30;52639;51.180;20.460;2023-03-04T19:45:55;-0.50;93.68
65864;SHT30;52639;51.180;20.460;2023-03-04T19:50:00;-0.58;92.88
65864;SHT30;52639;51.180;20.460;2023-03-04T19:54:05;-0.89;91.66
65864;SHT30;52639;51.180;20.460;2023-03-04T19:58:09;-1.08;92.70
65864;SHT30;52639;51.180;20.460;2023-03-04T20:02:15;-1.28;92.34
65864;SHT30;52639;51.180;20.460;2023-03-04T20:06:26;-1.56;91.57
65864;SHT30;52639;51.180;20.460;2023-03-04T20:10:32;-1.56;91.89
65864;SHT30;52639;51.180;20.460;2023-03-04T20:14:41;-1.67;91.40
65864;SHT30;52639;51.180;20.460;2023-03-04T20:18:48;-1.90;90.36
65864;SHT30;52639;51.180;20.460;2023-03-04T20:22:53;-2.21;91.02
65864;SHT30;52639;51.180;20.460;2023-03-04T20:26:58;-2.61;90.76
65864;SHT30;52639;51.180;20.460;2023-03-04T20:31:11;-2.77;90.55
65864;SHT30;52639;51.180;20.460;2023-03-04T20:35:20;-2.59;91.37
65864;SHT30;52639;51.180;20.460;2023-03-04T20:39:31;-2.83;90.60
65864;SHT30;52639;51.180;20.460;2023-03-04T20:43:42;-3.16;90.94
65864;SHT30;52639;51.180;20.460;2023-03-04T20:47:53;-3.34;90.82
65864;SHT30;52639;51.180;20.460;2023-03-04T20:52:16;-3.39;91.36
65864;SHT30;52639;51.180;20.460;2023-03-04T20:56:27;-3.55;91.01
65864;SHT30;52639;51.180;20.460;2023-03-04T21:00:41;-3.62;91.28
65864;SHT30;52639;51.180;20.460;2023-03-04T21:04:50;-3.51;91.53
65864;SHT30;52639;51.180;20.460;2023-03-04T21:09:04;-3.71;90.89
65864;SHT30;52639;51.180;20.460;2023-03-04T21:13:07;-3.70;91.14
65864;SHT30;52639;51.180;20.460;2023-03-04T21:17:17;-3.89;90.59
65864;SHT30;52639;51.180;20.460;2023-03-04T21:21:23;-3.78;91.23
65864;SHT30;52639;51.180;20.460;2023-03-04T21:25:30;-3.77;90.78
65864;SHT30;52639;51.180;20.460;2023-03-04T21:29:33;-3.75;90.67
65864;SHT30;52639;51.180;20.460;2023-03-04T21:33:37;-3.67;90.91
65864;SHT30;52639;51.180;20.460;2023-03-04T21:37:43;-3.68;90.68
65864;SHT30;52639;51.180;20.460;2023-03-04T21:41:49;-3.65;90.35
65864;SHT30;52639;51.180;20.460;2023-03-04T21:45:54;-3.72;89.87
65864;SHT30;52639;51.180;20.460;2023-03-04T21:49:59;-3.89;90.08
65864;SHT30;52639;51.180;20.460;2023-03-04T21:54:03;-3.99;90.16
65864;SHT30;52639;51.180;20.460;2023-03-04T21:58:11;-4.25;89.41
65864;SHT30;52639;51.180;20.460;2023-03-04T22:02:16;-4.46;89.93
65864;SHT30;52639;51.180;20.460;2023-03-04T22:06:21;-4.49;90.60
65864;SHT30;52639;51.180;20.460;2023-03-04T22:10:24;-4.70;90.42
65864;SHT30;52639;51.180;20.460;2023-03-04T22:14:32;-4.74;91.13
65864;SHT30;52639;51.180;20.460;2023-03-04T22:18:35;-4.95;90.10
65864;SHT30;52639;51.180;20.460;2023-03-04T22:22:38;-5.07;90.72
65864;SHT30;52639;51.180;20.460;2023-03-04T22:26:41;-5.18;90.69
65864;SHT30;52639;51.180;20.460;2023-03-04T22:30:46;-5.25;90.60
65864;SHT30;52639;51.180;20.460;2023-03-04T22:34:49;-5.24;90.39
65864;SHT30;52639;51.180;20.460;2023-03-04T22:38:52;-5.31;90.59
65864;SHT30;52639;51.180;20.460;2023-03-04T22:42:55;-5.39;90.76
65864;SHT30;52639;51.180;20.460;2023-03-04T22:46:59;-5.40;90.49
65864;SHT30;52639;51.180;20.460;2023-03-04T22:51:04;-5.32;90.65
65864;SHT30;52639;51.180;20.460;2023-03-04T22:55:08;-5.54;89.83
65864;SHT30;52639;51.180;20.460;2023-03-04T22:59:11;-5.62;90.77
65864;SHT30;52639;51.180;20.460;2023-03-04T23:03:16;-5.78;90.20
65864;SHT30;52639;51.180;20.460;2023-03-04T23:07:19;-5.76;90.92
65864;SHT30;52639;51.180;20.460;2023-03-04T23:11:24;-5.75;90.07
65864;SHT30;52639;51.180;20.460;2023-03-04T23:15:27;-5.82;90.59
65864;SHT30;52639;51.180;20.460;2023-03-04T23:19:32;-5.87;90.48
65864;SHT30;52639;51.180;20.460;2023-03-04T23:23:35;-5.92;90.59
65864;SHT30;52639;51.180;20.460;2023-03-04T23:27:38;-6.11;89.98
65864;SHT30;52639;51.180;20.460;2023-03-04T23:31:42;-6.13;90.75
65864;SHT30;52639;51.180;20.460;2023-03-04T23:35:47;-6.14;90.67
65864;SHT30;52639;51.180;20.460;2023-03-04T23:39:50;-6.21;90.80
65864;SHT30;52639;51.180;20.460;2023-03-04T23:43:53;-6.28;90.91
65864;SHT30;52639;51.180;20.460;2023-03-04T23:47:56;-6.28;90.96
65864;SHT30;52639;51.180;20.460;2023-03-04T23:52:01;-6.38;90.44
65864;SHT30;52639;51.180;20.460;2023-03-04T23:56:07;-6.45;90.86
